Airfield :
LOGIN :

Register | Disclaimer

   EN    FR    IT 

 










Legend :    VFR   Marginal VFR   IFR   Intensive IFR   Very Intensive IFR
Visi :
Ceiling :
>= 8 km
>= 3000ft
5 to 8 km
1000 to 3000 ft
1500m to 5 km
500 to 1000 ft
800 to 1500m
200 to 500 ft
< 800m
< 200 ft
Symbols :   Thunderstorms  Fog  Heavy snow  Heavy precipitations  Wind > 20 kt
SIGMETs :     Misc.  Thunderstorms  Icing  Turbulence  Mountain Waves  Volcanic Ashes






- Airport Elevation : 288 ft
- IATA code : BZZ


EGVN - RAF Brize Norton

CURRENT METAR :
  • 080320Z 22009KT 9999 FEW026 SCT030 05/02 Q0983 TEMPO 5000 SHRA SCT020 RMK BLU TEMPO WHT

EXPIRED METARs :
  • 080250Z 21011KT 9999 FEW020 BKN030 05/02 Q0982 TEMPO 5000 SHRA SCT020
  • 080220Z 22011G23KT 9999 -SHRA FEW020 BKN030 05/03 Q0982 TEMPO 5000 SHRA SCT020 RMK BLU TEMPO WHT
  • 080150Z 21013G23KT 9999 -SHRA FEW024 BKN030 06/02 Q0982 TEMPO 5000 SHRA SCT020 RMK BLU TEMPO WHT
  • 080120Z 21011G21KT 9999 FEW022 BKN030 05/03 Q0982 RESHRA TEMPO 5000 SHRA BKN020
  • 080111Z 22010KT 6000 SHRA SCT020 BKN030 05/03 Q0982 TEMPO 4000 RMK WHT TEMPO GRN
  • 080050Z 21013G23KT 9999 -SHRA FEW020 BKN030 05/03 Q0982 TEMPO 5000 SHRA BKN020

TAF TAF EGVN
Valid from the 08 at 03:00 until the 09 at 03:00 UTC


080136Z 0803/0903 20015G25KT 9999 SCT030
TEMPO 0803/0808 4000 SHRA BKN020
BECMG 0805/0807 24018G28KT
PROB30
TEMPO 0808/0817 SCT018
BECMG 0816/0818 25012KT
TEMPO 0817/0901 5000 RA BKN020



MET'MAP, your aeronautical weather chart ! - Copyright ORBIFLY December 2007 - Disclaimer

ORBIFLY MET'MAP TEAM :

Programming & Development : Alexandra Zaïnal
Concept & original design : Baudouin d'Aumeries
Assistance for programming : Marc-Olivier Méhu
Technical & hardware support : Manuel Goepfert

Contact : metmap@orbifly.com




SOURCES & CREDITS :

   NOAA